createdAt,value
2018-01-27T00:00:09.090Z,927.23
2018-01-27T00:00:22.184Z,927.2
2018-01-27T00:00:35.322Z,927.23
2018-01-27T00:00:48.126Z,927.23
2018-01-27T00:01:00.768Z,927.19
2018-01-27T00:01:12.922Z,927.21
2018-01-27T00:01:25.564Z,927.21
2018-01-27T00:01:38.254Z,927.23
2018-01-27T00:01:51.391Z,927.26
2018-01-27T00:02:04.023Z,927.22
2018-01-27T00:02:16.613Z,927.26
2018-01-27T00:02:29.681Z,927.21
2018-01-27T00:02:42.270Z,927.27
2018-01-27T00:02:55.259Z,927.26
2018-01-27T00:03:08.383Z,927.21
2018-01-27T00:03:21.030Z,927.18
2018-01-27T00:03:34.080Z,927.2
2018-01-27T00:03:47.157Z,927.23
2018-01-27T00:04:00.293Z,927.23
2018-01-27T00:04:13.494Z,927.25
2018-01-27T00:04:26.533Z,927.24
2018-01-27T00:04:39.651Z,927.27
2018-01-27T00:04:52.748Z,927.26
2018-01-27T00:05:04.937Z,927.24
2018-01-27T00:05:18.113Z,927.29
2018-01-27T00:05:30.309Z,927.22
2018-01-27T00:05:43.466Z,927.25
2018-01-27T00:05:56.542Z,927.23
2018-01-27T00:06:08.793Z,927.25
2018-01-27T00:06:21.864Z,927.25
2018-01-27T00:06:33.998Z,927.24
2018-01-27T00:06:46.693Z,927.31
2018-01-27T00:06:59.332Z,927.25
2018-01-27T00:07:12.004Z,927.24
2018-01-27T00:07:24.632Z,927.24
2018-01-27T00:07:37.146Z,927.25
2018-01-27T00:07:50.243Z,927.22
2018-01-27T00:08:02.493Z,927.22
2018-01-27T00:08:15.213Z,927.23
2018-01-27T00:08:27.855Z,927.29
2018-01-27T00:08:40.537Z,927.27
2018-01-27T00:08:53.134Z,927.31
2018-01-27T00:09:05.769Z,927.25
2018-01-27T00:09:17.887Z,927.3
2018-01-27T00:09:30.447Z,927.26
2018-01-27T00:09:43.582Z,927.27
2018-01-27T00:09:56.719Z,927.27
2018-01-27T00:10:09.378Z,927.3
2018-01-27T00:10:22.044Z,927.29
2018-01-27T00:10:34.185Z,927.25
2018-01-27T00:10:46.800Z,927.31
2018-01-27T00:10:59.838Z,927.33
2018-01-27T00:11:12.906Z,927.34
2018-01-27T00:11:25.041Z,927.31
2018-01-27T00:11:37.599Z,927.33
2018-01-27T00:11:50.698Z,927.33
2018-01-27T00:12:03.336Z,927.3
2018-01-27T00:12:15.979Z,927.32
2018-01-27T00:12:29.098Z,927.32
2018-01-27T00:12:42.137Z,927.34
2018-01-27T00:12:54.738Z,927.35
2018-01-27T00:13:07.834Z,927.36
2018-01-27T00:13:20.934Z,927.3
2018-01-27T00:13:33.499Z,927.28
2018-01-27T00:13:46.594Z,927.3
2018-01-27T00:13:59.167Z,927.27
2018-01-27T00:14:12.337Z,927.27
2018-01-27T00:14:25.371Z,927.27
2018-01-27T00:14:37.605Z,927.29
2018-01-27T00:14:49.705Z,927.28
2018-01-27T00:15:02.237Z,927.33
2018-01-27T00:15:14.862Z,927.31
2018-01-27T00:15:27.463Z,927.28
2018-01-27T00:15:40.360Z,927.27
2018-01-27T00:15:53.410Z,927.24
2018-01-27T00:16:06.472Z,927.24
2018-01-27T00:16:19.036Z,927.25
2018-01-27T00:16:31.239Z,927.2
2018-01-27T00:16:44.328Z,927.24
2018-01-27T00:16:56.890Z,927.28
2018-01-27T00:17:09.058Z,927.3
2018-01-27T00:17:21.624Z,927.26
2018-01-27T00:17:34.182Z,927.24
2018-01-27T00:17:46.820Z,927.19
2018-01-27T00:17:59.391Z,927.23
2018-01-27T00:18:12.042Z,927.2
2018-01-27T00:18:24.673Z,927.23
2018-01-27T00:18:37.713Z,927.23
2018-01-27T00:18:50.329Z,927.19
2018-01-27T00:19:03.414Z,927.18
2018-01-27T00:19:16.077Z,927.18
2018-01-27T00:19:28.735Z,927.21
2018-01-27T00:19:41.406Z,927.23
2018-01-27T00:19:54.537Z,927.25
2018-01-27T00:20:06.164Z,927.28
2018-01-27T00:20:18.285Z,927.28
2018-01-27T00:20:31.432Z,927.24
2018-01-27T00:20:43.604Z,927.23
2018-01-27T00:20:56.803Z,927.28
2018-01-27T00:21:08.959Z,927.22
2018-01-27T00:21:21.649Z,927.24
2018-01-27T00:21:33.802Z,927.22
2018-01-27T00:21:46.942Z,927.26
2018-01-27T00:21:59.471Z,927.27
2018-01-27T00:22:12.011Z,927.2
2018-01-27T00:22:24.610Z,927.22
2018-01-27T00:22:36.678Z,927.18
2018-01-27T00:22:48.827Z,927.24
2018-01-27T00:23:01.873Z,927.23
2018-01-27T00:23:13.581Z,927.2
2018-01-27T00:23:26.232Z,927.2
2018-01-27T00:23:39.333Z,927.23
2018-01-27T00:23:52.382Z,927.23
2018-01-27T00:24:05.033Z,927.2
2018-01-27T00:24:18.078Z,927.19
2018-01-27T00:24:30.308Z,927.19
2018-01-27T00:24:42.943Z,927.24
2018-01-27T00:24:55.957Z,927.21
2018-01-27T00:25:08.568Z,927.23
2018-01-27T00:25:20.723Z,927.23
2018-01-27T00:25:33.826Z,927.26
2018-01-27T00:25:46.933Z,927.27
2018-01-27T00:26:00.148Z,927.23
2018-01-27T00:26:13.236Z,927.29
2018-01-27T00:26:26.310Z,927.36
2018-01-27T00:26:38.900Z,927.29
2018-01-27T00:26:51.947Z,927.3
2018-01-27T00:27:05.034Z,927.26
2018-01-27T00:27:17.653Z,927.3
2018-01-27T00:27:30.716Z,927.32
2018-01-27T00:27:43.327Z,927.34
2018-01-27T00:27:56.362Z,927.35
2018-01-27T00:28:09.440Z,927.3
2018-01-27T00:28:21.622Z,927.31
2018-01-27T00:28:34.224Z,927.34
2018-01-27T00:28:47.290Z,927.33
2018-01-27T00:28:59.389Z,927.31
2018-01-27T00:29:11.610Z,927.32
2018-01-27T00:29:24.961Z,927.34
2018-01-27T00:29:37.509Z,927.31
2018-01-27T00:29:50.568Z,927.34
2018-01-27T00:30:02.226Z,927.34
2018-01-27T00:30:14.899Z,927.29
2018-01-27T00:30:27.942Z,927.36
2018-01-27T00:30:40.534Z,927.28
2018-01-27T00:30:53.180Z,927.3
2018-01-27T00:31:05.759Z,927.34
2018-01-27T00:31:18.348Z,927.29
2018-01-27T00:31:31.480Z,927.3
2018-01-27T00:31:44.063Z,927.33
2018-01-27T00:31:57.084Z,927.27
2018-01-27T00:32:10.222Z,927.27
2018-01-27T00:32:22.328Z,927.3
2018-01-27T00:32:35.378Z,927.29
2018-01-27T00:32:47.982Z,927.31
2018-01-27T00:33:00.687Z,927.29
2018-01-27T00:33:13.760Z,927.26
2018-01-27T00:33:26.385Z,927.27
2018-01-27T00:33:39.497Z,927.29
2018-01-27T00:33:52.021Z,927.34
2018-01-27T00:34:04.189Z,927.32
2018-01-27T00:34:16.897Z,927.3
2018-01-27T00:34:30.004Z,927.3
2018-01-27T00:34:43.032Z,927.29
2018-01-27T00:34:56.125Z,927.27
2018-01-27T00:35:09.207Z,927.29
2018-01-27T00:35:21.393Z,927.31
2018-01-27T00:35:34.500Z,927.31
2018-01-27T00:35:47.083Z,927.32
2018-01-27T00:36:00.130Z,927.27
2018-01-27T00:36:12.263Z,927.31
2018-01-27T00:36:25.291Z,927.28
2018-01-27T00:36:38.343Z,927.33
2018-01-27T00:36:51.482Z,927.34
2018-01-27T00:37:03.653Z,927.26
2018-01-27T00:37:15.327Z,927.41
2018-01-27T00:37:27.949Z,927.36
2018-01-27T00:37:40.503Z,927.28
2018-01-27T00:37:53.135Z,927.29
2018-01-27T00:38:05.693Z,927.29
2018-01-27T00:38:18.764Z,927.32
2018-01-27T00:38:31.395Z,927.28
2018-01-27T00:38:44.003Z,927.32
2018-01-27T00:38:57.122Z,927.3
2018-01-27T00:39:10.199Z,927.31
2018-01-27T00:39:22.809Z,927.31
2018-01-27T00:39:34.473Z,927.33
2018-01-27T00:39:47.056Z,927.36
2018-01-27T00:40:00.150Z,927.32
2018-01-27T00:40:13.205Z,927.31
2018-01-27T00:40:26.283Z,927.38
2018-01-27T00:40:39.387Z,927.34
2018-01-27T00:40:52.022Z,927.35
2018-01-27T00:41:05.071Z,927.35
2018-01-27T00:41:18.214Z,927.35
2018-01-27T00:41:30.275Z,927.34
2018-01-27T00:41:43.369Z,927.36
2018-01-27T00:41:56.467Z,927.31
2018-01-27T00:42:08.608Z,927.3
2018-01-27T00:42:21.184Z,927.32
2018-01-27T00:42:34.207Z,927.3
2018-01-27T00:42:46.745Z,927.32
2018-01-27T00:42:58.959Z,927.38
2018-01-27T00:43:11.515Z,927.34
2018-01-27T00:43:24.080Z,927.36
2018-01-27T00:43:37.262Z,927.33
2018-01-27T00:43:50.375Z,927.33
2018-01-27T00:44:03.423Z,927.28
2018-01-27T00:44:16.559Z,927.46
2018-01-27T00:44:30.306Z,927.42
2018-01-27T00:44:42.016Z,927.38
2018-01-27T00:44:55.175Z,927.37
2018-01-27T00:45:07.262Z,927.35
2018-01-27T00:45:18.923Z,927.33
2018-01-27T00:45:32.038Z,927.37
2018-01-27T00:45:45.093Z,927.36
2018-01-27T00:45:58.172Z,927.33
2018-01-27T00:46:10.797Z,927.35
2018-01-27T00:46:23.400Z,927.39
2018-01-27T00:46:35.472Z,927.34
2018-01-27T00:46:48.155Z,927.37
2018-01-27T00:47:01.265Z,927.35
2018-01-27T00:47:13.991Z,927.4
2018-01-27T00:47:26.593Z,927.34
2018-01-27T00:47:39.710Z,927.33
2018-01-27T00:47:52.814Z,927.35
2018-01-27T00:48:05.423Z,927.31
2018-01-27T00:48:18.560Z,927.31
2018-01-27T00:48:31.175Z,927.32
2018-01-27T00:48:43.307Z,927.41
2018-01-27T00:48:56.331Z,927.39
2018-01-27T00:49:09.410Z,927.39
2018-01-27T00:49:21.115Z,927.37
2018-01-27T00:49:34.161Z,927.38
2018-01-27T00:49:47.201Z,927.36
2018-01-27T00:50:00.287Z,927.34
2018-01-27T00:50:12.899Z,927.36
2018-01-27T00:50:26.011Z,927.46
2018-01-27T00:50:39.101Z,927.5
2018-01-27T00:50:51.701Z,927.39
2018-01-27T00:51:04.278Z,927.36
2018-01-27T00:51:17.364Z,927.42
2018-01-27T00:51:30.062Z,927.34
2018-01-27T00:51:44.618Z,927.36
2018-01-27T00:51:57.674Z,927.36
2018-01-27T00:52:10.230Z,927.36
2018-01-27T00:52:22.345Z,927.35
2018-01-27T00:52:35.445Z,927.36
2018-01-27T00:52:48.119Z,927.4
2018-01-27T00:53:01.160Z,927.39
2018-01-27T00:53:12.775Z,927.38
2018-01-27T00:53:25.803Z,927.37
2018-01-27T00:53:38.972Z,927.4
2018-01-27T00:53:52.020Z,927.36
2018-01-27T00:54:04.585Z,927.41
2018-01-27T00:54:17.621Z,927.37
2018-01-27T00:54:30.126Z,927.35
2018-01-27T00:54:43.169Z,927.4
2018-01-27T00:54:56.293Z,927.36
2018-01-27T00:55:09.355Z,927.37
2018-01-27T00:55:22.373Z,927.34
2018-01-27T00:55:34.980Z,927.4
2018-01-27T00:55:48.111Z,927.36
2018-01-27T00:56:01.178Z,927.38
2018-01-27T00:56:13.795Z,927.44
2018-01-27T00:56:26.910Z,927.4
2018-01-27T00:56:39.486Z,927.42
2018-01-27T00:56:52.587Z,927.47
2018-01-27T00:57:05.667Z,927.43
2018-01-27T00:57:18.742Z,927.43
2018-01-27T00:57:31.815Z,927.41
2018-01-27T00:57:44.856Z,927.43
2018-01-27T00:57:57.487Z,927.46
2018-01-27T00:58:10.547Z,927.47
2018-01-27T00:58:22.616Z,927.45
2018-01-27T00:58:35.213Z,927.45
2018-01-27T00:58:48.312Z,927.47
2018-01-27T00:59:01.418Z,927.45
2018-01-27T00:59:13.508Z,927.43
2018-01-27T00:59:27.023Z,927.48
2018-01-27T00:59:39.988Z,927.49
2018-01-27T00:59:53.049Z,927.59
2018-01-27T01:00:06.197Z,927.48
2018-01-27T01:00:18.769Z,927.5
2018-01-27T01:00:31.283Z,927.45
2018-01-27T01:00:43.848Z,927.54
2018-01-27T01:00:56.957Z,927.47
2018-01-27T01:01:10.047Z,927.52
2018-01-27T01:01:23.174Z,927.51
2018-01-27T01:01:36.266Z,927.54
2018-01-27T01:01:49.390Z,927.53
2018-01-27T01:02:01.475Z,927.59
2018-01-27T01:02:14.149Z,927.59
2018-01-27T01:02:27.285Z,927.52
2018-01-27T01:02:39.395Z,927.53
2018-01-27T01:02:52.464Z,927.55
2018-01-27T01:03:05.486Z,927.51
2018-01-27T01:03:17.560Z,927.57
2018-01-27T01:03:30.177Z,927.52
2018-01-27T01:03:42.865Z,927.51
2018-01-27T01:03:55.888Z,927.56
2018-01-27T01:04:08.513Z,927.53
2018-01-27T01:04:20.657Z,927.57
2018-01-27T01:04:33.333Z,927.54
2018-01-27T01:04:45.898Z,927.56
2018-01-27T01:04:58.594Z,927.57
2018-01-27T01:05:10.576Z,927.54
2018-01-27T01:05:23.646Z,927.53
2018-01-27T01:05:36.757Z,927.56
2018-01-27T01:05:49.821Z,927.52
2018-01-27T01:06:02.862Z,927.56
2018-01-27T01:06:15.452Z,927.55
2018-01-27T01:06:28.542Z,927.6
2018-01-27T01:06:40.224Z,927.57
2018-01-27T01:06:52.799Z,927.59
2018-01-27T01:07:05.415Z,927.6
2018-01-27T01:07:17.992Z,927.6
2018-01-27T01:07:31.009Z,927.58
2018-01-27T01:07:43.980Z,927.54
2018-01-27T01:07:57.091Z,927.56
2018-01-27T01:08:09.750Z,927.55
2018-01-27T01:08:21.904Z,927.56
2018-01-27T01:08:34.921Z,927.54
2018-01-27T01:08:47.939Z,927.54
2018-01-27T01:09:01.057Z,927.51
2018-01-27T01:09:13.662Z,927.55
2018-01-27T01:09:26.332Z,927.52
2018-01-27T01:09:39.433Z,927.53
2018-01-27T01:09:52.584Z,927.54
2018-01-27T01:10:04.275Z,927.55
2018-01-27T01:10:16.871Z,927.53
2018-01-27T01:10:29.859Z,927.56
2018-01-27T01:10:42.916Z,927.55
2018-01-27T01:10:55.929Z,927.53
2018-01-27T01:11:07.967Z,927.5
2018-01-27T01:11:21.054Z,927.53
2018-01-27T01:11:33.724Z,927.53
2018-01-27T01:11:46.275Z,927.59
2018-01-27T01:11:59.427Z,927.53
2018-01-27T01:12:12.570Z,927.54
2018-01-27T01:12:25.224Z,927.52
2018-01-27T01:12:37.393Z,927.53
2018-01-27T01:12:50.475Z,927.57
2018-01-27T01:13:03.143Z,927.57
2018-01-27T01:13:14.753Z,927.63
2018-01-27T01:13:27.372Z,927.48
2018-01-27T01:13:40.484Z,927.49
2018-01-27T01:13:52.678Z,927.5
2018-01-27T01:14:05.787Z,927.52
2018-01-27T01:14:18.895Z,927.5
2018-01-27T01:14:32.286Z,927.53
2018-01-27T01:14:44.933Z,927.52
2018-01-27T01:14:57.527Z,927.49
2018-01-27T01:15:09.619Z,927.54
2018-01-27T01:15:22.700Z,927.61
2018-01-27T01:15:35.347Z,927.59
2018-01-27T01:15:47.907Z,927.6
2018-01-27T01:16:00.997Z,927.51
2018-01-27T01:16:14.073Z,927.5
2018-01-27T01:16:26.263Z,927.53
2018-01-27T01:16:38.833Z,927.55
2018-01-27T01:16:51.944Z,927.6
2018-01-27T01:17:04.062Z,927.54
2018-01-27T01:17:17.110Z,927.56
2018-01-27T01:17:30.129Z,927.57
2018-01-27T01:17:42.692Z,927.57
2018-01-27T01:17:55.711Z,927.55
2018-01-27T01:18:08.308Z,927.57
2018-01-27T01:18:21.333Z,927.57
2018-01-27T01:18:34.012Z,927.59
2018-01-27T01:18:47.140Z,927.57
2018-01-27T01:19:00.184Z,927.59
2018-01-27T01:19:13.321Z,927.56
2018-01-27T01:19:25.977Z,927.59
2018-01-27T01:19:38.569Z,927.66
2018-01-27T01:19:51.142Z,927.6
2018-01-27T01:20:03.710Z,927.66
2018-01-27T01:20:15.855Z,927.66
2018-01-27T01:20:27.980Z,927.65
2018-01-27T01:20:40.623Z,927.6
2018-01-27T01:20:53.719Z,927.62
2018-01-27T01:21:06.830Z,927.64
2018-01-27T01:21:19.819Z,927.61
2018-01-27T01:21:32.800Z,927.63
2018-01-27T01:21:44.961Z,927.67
2018-01-27T01:21:58.019Z,927.68
2018-01-27T01:22:11.123Z,927.68
2018-01-27T01:22:24.243Z,927.66
2018-01-27T01:22:37.271Z,927.68
2018-01-27T01:22:49.811Z,927.73
2018-01-27T01:23:02.412Z,927.68
2018-01-27T01:23:14.470Z,927.74
2018-01-27T01:23:27.097Z,927.74
2018-01-27T01:23:40.156Z,927.7
2018-01-27T01:23:53.215Z,927.72
2018-01-27T01:24:05.825Z,927.7
2018-01-27T01:24:18.411Z,927.67
2018-01-27T01:24:31.023Z,927.67
2018-01-27T01:24:44.065Z,927.72
2018-01-27T01:24:56.627Z,927.74
2018-01-27T01:25:08.319Z,927.71
2018-01-27T01:25:21.416Z,927.7
2018-01-27T01:25:33.983Z,927.73
2018-01-27T01:25:47.029Z,927.69
2018-01-27T01:26:00.136Z,927.72
2018-01-27T01:26:12.282Z,927.68
2018-01-27T01:26:24.859Z,927.71
2018-01-27T01:26:37.987Z,927.71
2018-01-27T01:26:51.134Z,927.66
2018-01-27T01:27:04.264Z,927.65
2018-01-27T01:27:17.302Z,927.67
2018-01-27T01:27:29.925Z,927.71
2018-01-27T01:27:43.020Z,927.74
2018-01-27T01:27:56.065Z,927.69
2018-01-27T01:28:07.743Z,927.77
2018-01-27T01:28:20.836Z,927.67
2018-01-27T01:28:33.868Z,927.75
2018-01-27T01:28:46.444Z,927.73
2018-01-27T01:28:58.981Z,927.69
2018-01-27T01:29:12.157Z,927.69
2018-01-27T01:29:25.281Z,927.66
2018-01-27T01:29:40.587Z,927.69
2018-01-27T01:29:53.625Z,927.68
2018-01-27T01:30:06.177Z,927.66
2018-01-27T01:30:19.162Z,927.69
2018-01-27T01:30:31.778Z,927.66
2018-01-27T01:30:44.908Z,927.69
2018-01-27T01:30:57.511Z,927.74
2018-01-27T01:31:10.218Z,927.8
2018-01-27T01:31:22.774Z,927.7
2018-01-27T01:31:35.942Z,927.74
2018-01-27T01:31:49.026Z,927.73
2018-01-27T01:32:01.581Z,927.75
2018-01-27T01:32:12.800Z,927.71
2018-01-27T01:32:25.361Z,927.74
2018-01-27T01:32:38.397Z,927.72
2018-01-27T01:32:49.640Z,927.72
2018-01-27T01:33:02.307Z,927.73
2018-01-27T01:33:14.012Z,927.75
2018-01-27T01:33:27.128Z,927.79
2018-01-27T01:33:40.205Z,927.79
2018-01-27T01:33:53.372Z,927.79
2018-01-27T01:34:05.977Z,927.72
2018-01-27T01:34:18.597Z,927.72
2018-01-27T01:34:31.697Z,927.88
2018-01-27T01:34:44.731Z,927.81
2018-01-27T01:34:57.836Z,927.75
2018-01-27T01:35:10.425Z,927.72
2018-01-27T01:35:23.514Z,927.8
2018-01-27T01:35:36.087Z,927.85
2018-01-27T01:35:49.126Z,927.81
2018-01-27T01:36:01.660Z,927.83
2018-01-27T01:36:13.748Z,927.76
2018-01-27T01:36:26.819Z,927.83
2018-01-27T01:36:39.390Z,927.84
2018-01-27T01:36:52.447Z,927.83
2018-01-27T01:37:04.970Z,927.85
2018-01-27T01:37:18.004Z,927.86
2018-01-27T01:37:30.087Z,927.88
2018-01-27T01:37:42.226Z,927.84
2018-01-27T01:37:55.238Z,927.82
2018-01-27T01:38:07.894Z,927.86
2018-01-27T01:38:20.982Z,927.87
2018-01-27T01:38:33.091Z,927.84
2018-01-27T01:38:46.108Z,927.79
2018-01-27T01:38:58.247Z,927.84
2018-01-27T01:39:11.297Z,927.83
2018-01-27T01:39:23.891Z,927.8
2018-01-27T01:39:36.987Z,927.81
2018-01-27T01:39:50.149Z,927.82
2018-01-27T01:40:03.256Z,927.82
2018-01-27T01:40:15.910Z,927.81
2018-01-27T01:40:29.041Z,927.83
2018-01-27T01:40:42.196Z,927.84
2018-01-27T01:40:54.783Z,927.8
2018-01-27T01:41:06.934Z,927.81
2018-01-27T01:41:20.064Z,927.81
2018-01-27T01:41:32.185Z,927.8
2018-01-27T01:41:43.782Z,927.8
2018-01-27T01:41:56.860Z,927.81
2018-01-27T01:42:09.060Z,927.83
2018-01-27T01:42:22.153Z,927.82
2018-01-27T01:42:34.757Z,927.82
2018-01-27T01:42:47.777Z,927.85
2018-01-27T01:43:00.850Z,927.82
2018-01-27T01:43:13.491Z,927.79
2018-01-27T01:43:26.068Z,927.81
2018-01-27T01:43:39.163Z,927.84
2018-01-27T01:43:51.718Z,927.84
2018-01-27T01:44:04.210Z,927.84
2018-01-27T01:44:16.790Z,927.81
2018-01-27T01:44:28.934Z,927.77
2018-01-27T01:44:42.736Z,927.77
2018-01-27T01:44:55.456Z,927.81
2018-01-27T01:45:08.065Z,927.78
2018-01-27T01:45:20.676Z,927.74
2018-01-27T01:45:33.752Z,927.76
2018-01-27T01:45:46.277Z,927.77
2018-01-27T01:45:59.386Z,927.78
2018-01-27T01:46:11.953Z,927.78
2018-01-27T01:46:24.540Z,927.78
2018-01-27T01:46:36.751Z,927.77
2018-01-27T01:46:49.336Z,927.88
2018-01-27T01:47:02.438Z,927.79
2018-01-27T01:47:15.052Z,927.76
2018-01-27T01:47:28.158Z,927.76
2018-01-27T01:47:40.758Z,927.82
2018-01-27T01:47:53.316Z,927.78
2018-01-27T01:48:06.373Z,927.75
2018-01-27T01:48:18.999Z,927.75
2018-01-27T01:48:31.597Z,927.76
2018-01-27T01:48:43.649Z,927.7
2018-01-27T01:48:56.807Z,927.88
2018-01-27T01:49:09.917Z,927.79
2018-01-27T01:49:23.017Z,927.74
2018-01-27T01:49:35.660Z,927.75
2018-01-27T01:49:48.802Z,927.72
2018-01-27T01:50:01.877Z,927.72
2018-01-27T01:50:14.990Z,927.74
2018-01-27T01:50:28.067Z,927.74
2018-01-27T01:50:41.144Z,927.76
2018-01-27T01:50:54.207Z,927.74
2018-01-27T01:51:06.858Z,927.75
2018-01-27T01:51:19.957Z,927.81
2018-01-27T01:51:32.563Z,927.69
2018-01-27T01:51:45.203Z,927.73
2018-01-27T01:51:57.831Z,927.71
2018-01-27T01:52:10.049Z,927.71
2018-01-27T01:52:23.150Z,927.77
2018-01-27T01:52:36.212Z,927.74
2018-01-27T01:52:48.777Z,927.74
2018-01-27T01:53:01.399Z,927.76
2018-01-27T01:53:14.443Z,927.76
2018-01-27T01:53:26.545Z,927.74
2018-01-27T01:53:39.550Z,927.74
2018-01-27T01:53:52.157Z,927.69
2018-01-27T01:54:05.219Z,927.67
2018-01-27T01:54:18.480Z,927.66
2018-01-27T01:54:31.065Z,927.73
2018-01-27T01:54:44.180Z,927.72
2018-01-27T01:54:57.203Z,927.71
2018-01-27T01:55:08.921Z,927.72
2018-01-27T01:55:21.450Z,927.77
2018-01-27T01:55:33.593Z,927.72
2018-01-27T01:55:46.705Z,927.76
2018-01-27T01:55:59.350Z,927.77
2018-01-27T01:56:11.910Z,927.82
2018-01-27T01:56:25.072Z,927.82
2018-01-27T01:56:37.258Z,927.77
2018-01-27T01:56:50.343Z,927.77
2018-01-27T01:57:03.486Z,927.75
2018-01-27T01:57:16.117Z,927.76
2018-01-27T01:57:28.722Z,927.76
2018-01-27T01:57:40.827Z,927.77
2018-01-27T01:57:53.494Z,927.75
2018-01-27T01:58:06.510Z,927.78
2018-01-27T01:58:19.606Z,927.78
2018-01-27T01:58:32.697Z,927.75
2018-01-27T01:58:45.745Z,927.81
2018-01-27T01:58:58.808Z,927.78
2018-01-27T01:59:10.967Z,927.71
2018-01-27T01:59:23.540Z,927.78
2018-01-27T01:59:36.699Z,927.79
2018-01-27T01:59:50.789Z,927.81
2018-01-27T02:00:03.832Z,927.72
2018-01-27T02:00:16.006Z,927.77
2018-01-27T02:00:28.611Z,927.83
2018-01-27T02:00:41.626Z,927.8
2018-01-27T02:00:54.729Z,927.81
2018-01-27T02:01:07.822Z,927.84
2018-01-27T02:01:20.857Z,927.77
2018-01-27T02:01:32.964Z,927.76
2018-01-27T02:01:45.551Z,927.82
2018-01-27T02:01:58.610Z,927.77
2018-01-27T02:02:11.237Z,927.78
2018-01-27T02:02:24.311Z,927.73
2018-01-27T02:02:36.414Z,927.76
2018-01-27T02:02:49.497Z,927.79
2018-01-27T02:03:02.100Z,927.76
2018-01-27T02:03:14.776Z,927.74
2018-01-27T02:03:27.327Z,927.74
2018-01-27T02:03:40.483Z,927.77
2018-01-27T02:03:53.557Z,927.76
2018-01-27T02:04:05.906Z,927.76
2018-01-27T02:04:19.032Z,927.8
2018-01-27T02:04:31.669Z,927.81
2018-01-27T02:04:44.793Z,927.8
2018-01-27T02:04:57.496Z,927.75
2018-01-27T02:05:10.191Z,927.75
2018-01-27T02:05:23.063Z,927.76
2018-01-27T02:05:36.147Z,927.76
2018-01-27T02:05:49.244Z,927.77
2018-01-27T02:06:02.310Z,927.74
2018-01-27T02:06:14.384Z,927.76
2018-01-27T02:06:27.493Z,927.74
2018-01-27T02:06:40.531Z,927.73
2018-01-27T02:06:53.135Z,927.8
2018-01-27T02:07:06.236Z,927.82
2018-01-27T02:07:18.314Z,927.77
2018-01-27T02:07:31.443Z,927.77
2018-01-27T02:07:43.529Z,927.74
2018-01-27T02:07:56.064Z,927.76
2018-01-27T02:08:08.236Z,927.7
2018-01-27T02:08:20.451Z,927.71
2018-01-27T02:08:33.077Z,927.66
2018-01-27T02:08:46.178Z,927.7
2018-01-27T02:08:59.277Z,927.75
2018-01-27T02:09:11.920Z,927.68
2018-01-27T02:09:38.479Z,927.74
2018-01-27T02:09:51.520Z,927.77
2018-01-27T02:10:15.816Z,927.75
2018-01-27T02:10:40.500Z,927.73
2018-01-27T02:10:53.524Z,927.7
2018-01-27T02:11:06.052Z,927.74
2018-01-27T02:11:19.038Z,927.79
2018-01-27T02:11:31.635Z,927.75
2018-01-27T02:11:43.308Z,927.71
2018-01-27T02:11:56.322Z,927.72
2018-01-27T02:12:07.952Z,927.74
2018-01-27T02:12:52.473Z,927.73
2018-01-27T02:13:05.617Z,927.73
2018-01-27T02:13:17.759Z,927.76
2018-01-27T02:13:30.854Z,927.68
2018-01-27T02:13:43.966Z,927.7
2018-01-27T02:13:57.091Z,927.72
2018-01-27T02:14:09.660Z,927.69
2018-01-27T02:14:21.742Z,927.75
2018-01-27T02:14:34.323Z,927.7
2018-01-27T02:14:46.930Z,927.72
2018-01-27T02:15:00.718Z,927.73
2018-01-27T02:15:13.325Z,927.73
2018-01-27T02:15:25.839Z,927.72
2018-01-27T02:15:38.916Z,927.72
2018-01-27T02:15:51.964Z,927.71
2018-01-27T02:16:04.615Z,927.71
2018-01-27T02:16:17.664Z,927.71
2018-01-27T02:16:30.257Z,927.72
2018-01-27T02:16:43.388Z,927.64
2018-01-27T02:16:55.999Z,927.68
2018-01-27T02:17:08.107Z,927.64
2018-01-27T02:17:21.135Z,927.69
2018-01-27T02:17:34.199Z,927.67
2018-01-27T02:17:47.206Z,927.67
2018-01-27T02:17:59.781Z,927.72
2018-01-27T02:18:12.837Z,927.66
2018-01-27T02:18:25.871Z,927.67
2018-01-27T02:18:38.490Z,927.63
2018-01-27T02:18:51.557Z,927.63
2018-01-27T02:19:04.647Z,927.57
2018-01-27T02:19:17.725Z,927.65
2018-01-27T02:19:30.761Z,927.62
2018-01-27T02:19:43.374Z,927.62
2018-01-27T02:19:56.398Z,927.67
2018-01-27T02:20:09.012Z,927.68
2018-01-27T02:20:22.065Z,927.64
2018-01-27T02:20:34.199Z,927.63
2018-01-27T02:20:46.783Z,927.69
2018-01-27T02:20:59.880Z,927.68
2018-01-27T02:21:12.948Z,927.66
2018-01-27T02:21:26.081Z,927.68
2018-01-27T02:21:38.703Z,927.64
2018-01-27T02:21:51.528Z,927.69
2018-01-27T02:22:04.574Z,927.76
2018-01-27T02:22:17.226Z,927.79
2018-01-27T02:22:30.375Z,927.75
2018-01-27T02:22:42.507Z,927.73
2018-01-27T02:22:54.637Z,927.7
2018-01-27T02:23:07.239Z,927.76
2018-01-27T02:23:20.313Z,927.75
2018-01-27T02:23:32.969Z,927.65
2018-01-27T02:23:45.536Z,927.69
2018-01-27T02:23:58.122Z,927.71
2018-01-27T02:24:10.209Z,927.7
2018-01-27T02:24:22.837Z,927.66
2018-01-27T02:24:35.460Z,927.72
2018-01-27T02:24:48.535Z,927.8
2018-01-27T02:25:01.647Z,927.71
2018-01-27T02:25:14.260Z,927.65
2018-01-27T02:25:26.857Z,927.7
2018-01-27T02:25:39.876Z,927.67
2018-01-27T02:25:52.615Z,927.66
2018-01-27T02:26:05.177Z,927.65
2018-01-27T02:26:17.789Z,927.68
2018-01-27T02:26:30.773Z,927.65
2018-01-27T02:26:43.395Z,927.64
2018-01-27T02:26:56.511Z,927.7
2018-01-27T02:27:09.125Z,927.67
2018-01-27T02:27:22.101Z,927.65
2018-01-27T02:27:35.205Z,927.65
2018-01-27T02:27:48.324Z,927.69
2018-01-27T02:28:00.959Z,927.65
2018-01-27T02:28:13.067Z,927.66
2018-01-27T02:28:26.147Z,927.66
2018-01-27T02:28:38.722Z,927.64
2018-01-27T02:28:51.831Z,927.62
2018-01-27T02:29:04.402Z,927.65
2018-01-27T02:29:17.034Z,927.67
2018-01-27T02:29:29.608Z,927.64
2018-01-27T02:29:42.700Z,927.65
2018-01-27T02:29:55.744Z,927.67
2018-01-27T02:30:09.582Z,927.71
2018-01-27T02:30:22.221Z,927.62
2018-01-27T02:30:34.757Z,927.63
2018-01-27T02:30:46.886Z,927.64
2018-01-27T02:31:00.010Z,927.65
2018-01-27T02:31:13.040Z,927.65
2018-01-27T02:31:26.115Z,927.64
2018-01-27T02:31:38.719Z,927.63
2018-01-27T02:31:51.323Z,927.74
2018-01-27T02:32:03.895Z,927.68
2018-01-27T02:32:16.035Z,927.6
2018-01-27T02:32:28.594Z,927.62
2018-01-27T02:32:41.152Z,927.66
2018-01-27T02:32:53.690Z,927.62
2018-01-27T02:33:06.873Z,927.56
2018-01-27T02:33:19.463Z,927.57
2018-01-27T02:33:32.602Z,927.62
2018-01-27T02:33:45.672Z,927.56
2018-01-27T02:33:58.750Z,927.61
2018-01-27T02:34:11.469Z,927.57
2018-01-27T02:34:24.082Z,927.65
2018-01-27T02:34:36.744Z,927.57
2018-01-27T02:34:48.873Z,927.56
2018-01-27T02:35:02.091Z,927.57
2018-01-27T02:35:15.123Z,927.61
2018-01-27T02:35:27.745Z,927.58
2018-01-27T02:35:40.343Z,927.54
2018-01-27T02:35:52.892Z,927.53
2018-01-27T02:36:05.030Z,927.52
2018-01-27T02:36:17.169Z,927.6
2018-01-27T02:36:29.844Z,927.59
2018-01-27T02:36:43.063Z,927.53
2018-01-27T02:36:55.920Z,927.62
2018-01-27T02:37:08.060Z,927.65
2018-01-27T02:37:21.227Z,927.51
2018-01-27T02:37:34.258Z,927.53
2018-01-27T02:37:47.368Z,927.5
2018-01-27T02:37:59.996Z,927.56
2018-01-27T02:38:12.662Z,927.52
2018-01-27T02:38:25.715Z,927.55
2018-01-27T02:38:38.301Z,927.46
2018-01-27T02:38:51.282Z,927.51
2018-01-27T02:39:03.936Z,927.52
2018-01-27T02:39:17.062Z,927.54
2018-01-27T02:39:30.128Z,927.56
2018-01-27T02:39:42.773Z,927.53
2018-01-27T02:39:55.919Z,927.56
2018-01-27T02:40:08.041Z,927.55
2018-01-27T02:40:20.583Z,927.56
2018-01-27T02:40:33.852Z,927.6
2018-01-27T02:40:47.312Z,927.56